Skip Navigation Links Skip Navigation Links

Current Weather

Nellis Afb, Las Vegas, Nev.

For information only: do not use for flight planning or navigation.
Latest weather
Observation time Tuesday, September 17, 2019 12:11 AM PDT
Local time Tuesday, September 17, 2019 12:25 AM PDT
Flight conditions Visual Meteorological Conditions
Winds
Wind direction East-Southeast (120°)
Wind speed 13 mph
Visibility 10 mi.
Sky condition
Ceiling unlimited
Sky clear
Temperature 82°F
Dewpoint 30°F
Altimeter 29.78 in.Hg
Derived measurements
Relative humidity 15%
Heat index 82°F
Density altitude 3617 ft.
Sea-level pressure 29.70 in.Hg
Remarks
Special weather observation.
Fully automated report.
System requires maintenance.
Automated weather observing station with precipitation discriminator.
METAR SPECI KLSV 170711Z AUTO 12011KT 10SM CLR 28/M01 A2978 RMK AO2 WSHFT 09 SLP058 $

Settings

Location code

InnerDrive.Weather 4.0.6770.0 Release CLR 4.0.30319.42000
Copyright ©2018 Inner Drive Technology. All rights reserved. Portions Copyright ©1986-2018 David Braverman.

Find weather

Site navigation


Skip Navigation Links

Place info

Page info

PayPal - The safer, easier way to pay online!

Return home.

Copyright ©2019 Inner Drive Technology. Purveyors of fine, hand-crafted computer software. Page printed 2019-09-17T07:25:29 UTC.